Time;durP1;ratioP1;P1;durP2;ratioP2;P2;SDS_P1;SDS_P2;PMS_P1;PMS_P2;Temp;Humidity;BMP_temperature;BMP_pressure;BME280_temperature;BME280_humidity;BME280_pressure;Samples;Min_cycle;Max_cycle;Signal;HPM_P1;HPM_P2
2023/07/06 00:01:06;;;;;;;2.10;1.90;;;;;;;14.43;86.60;98675.13;4067645;29;20235;-65
2023/07/06 00:03:07;;;;;;;1.75;1.55;;;;;;;14.36;86.88;98680.06;4067765;29;20272;-65
2023/07/06 00:05:09;;;;;;;2.85;1.70;;;;;;;14.25;87.47;98680.31;4071939;29;20263;-64
2023/07/06 00:07:12;;;;;;;3.13;1.80;;;;;;;14.14;88.50;98673.91;4071413;29;20269;-65
2023/07/06 00:09:14;;;;;;;2.13;1.90;;;;;;;14.18;88.57;98677.78;4070882;29;20298;-65
2023/07/06 00:11:16;;;;;;;2.13;1.60;;;;;;;13.97;90.03;98680.69;4071542;29;20251;-65
2023/07/06 00:13:20;;;;;;;2.22;2.03;;;;;;;14.08;89.76;98671.38;4068883;29;20243;-65
2023/07/06 00:15:22;;;;;;;2.60;2.22;;;;;;;14.26;88.63;98673.69;4070064;29;20216;-65
2023/07/06 00:17:23;;;;;;;3.30;2.22;;;;;;;14.40;88.25;98681.19;4071047;29;20307;-65
2023/07/06 00:19:25;;;;;;;2.67;1.90;;;;;;;14.57;87.35;98670.75;4071978;29;20216;-65
2023/07/06 00:21:29;;;;;;;2.95;1.95;;;;;;;14.57;87.30;98680.97;4070341;29;20288;-64
2023/07/06 00:23:31;;;;;;;2.70;1.45;;;;;;;14.52;87.99;98679.03;4069659;29;20232;-65
2023/07/06 00:25:36;;;;;;;2.65;1.70;;;;;;;14.33;88.98;98680.63;4071483;29;20299;-65
2023/07/06 00:27:40;;;;;;;3.13;2.58;;;;;;;13.89;91.73;98679.28;4071082;29;20940;-64
2023/07/06 00:29:56;;;;;;;2.88;1.85;;;;;;;14.08;91.30;98679.63;4070365;29;20205;-64
2023/07/06 00:32:15;;;;;;;2.80;2.00;;;;;;;14.14;90.51;98679.41;4071807;29;20240;-65
2023/07/06 00:34:18;;;;;;;3.20;2.17;;;;;;;14.27;90.12;98681.69;4071565;29;20248;-64
2023/07/06 00:36:20;;;;;;;2.65;1.55;;;;;;;14.33;89.52;98686.13;4069883;29;20232;-65
2023/07/06 00:38:23;;;;;;;3.75;1.67;;;;;;;14.36;89.20;98688.31;4069458;29;20220;-65
2023/07/06 00:40:31;;;;;;;1.90;1.80;;;;;;;14.22;90.35;98687.19;4073406;29;20291;-65
2023/07/06 00:42:35;;;;;;;8.43;2.00;;;;;;;14.39;89.51;98685.06;4069454;29;20235;-64
2023/07/06 00:44:50;;;;;;;3.05;1.70;;;;;;;14.38;89.42;98691.63;4071022;29;20205;-65
2023/07/06 00:46:51;;;;;;;2.53;1.95;;;;;;;14.35;89.15;98689.44;4069465;29;20288;-65
2023/07/06 00:48:54;;;;;;;3.03;2.05;;;;;;;14.38;89.04;98688.88;4069900;29;20217;-65
2023/07/06 00:50:59;;;;;;;6.28;2.22;;;;;;;14.43;88.67;98688.91;4068251;29;20632;-65
2023/07/06 00:53:06;;;;;;;2.45;2.25;;;;;;;14.46;88.45;98699.38;4068090;29;20200;-65
2023/07/06 00:55:10;;;;;;;2.65;1.75;;;;;;;14.51;88.37;98687.56;4069995;29;20707;-64
2023/07/06 00:57:13;;;;;;;2.75;2.05;;;;;;;14.48;88.49;98688.91;4073581;29;20323;-65
2023/07/06 00:59:17;;;;;;;3.03;1.52;;;;;;;14.46;88.45;98690.28;4066341;29;20208;-65
2023/07/06 01:01:20;;;;;;;3.90;2.10;;;;;;;14.49;88.54;98687.81;4067623;29;20235;-65
2023/07/06 01:03:22;;;;;;;3.05;1.75;;;;;;;14.38;88.35;98688.06;4070592;29;20300;-64
2023/07/06 01:05:25;;;;;;;4.65;1.80;;;;;;;14.36;88.19;98687.53;4070291;29;20248;-64
2023/07/06 01:07:27;;;;;;;1.52;1.25;;;;;;;14.41;88.22;98685.59;4068388;29;20213;-64
2023/07/06 01:09:29;;;;;;;2.22;2.03;;;;;;;14.37;87.97;98689.97;4069823;29;20244;-64
2023/07/06 01:11:37;;;;;;;2.28;1.67;;;;;;;14.37;87.67;98691.91;4069897;29;20224;-64
2023/07/06 01:13:46;;;;;;;6.43;1.77;;;;;;;14.35;87.95;98694.94;4069922;29;20259;-64
2023/07/06 01:15:49;;;;;;;2.47;1.98;;;;;;;14.30;87.76;98692.16;4075575;29;20323;-64
2023/07/06 01:17:59;;;;;;;3.15;2.05;;;;;;;14.26;87.94;98691.06;4074808;29;20577;-65
2023/07/06 01:20:44;;;;;;;3.85;1.92;;;;;;;14.16;88.08;98685.47;4069663;29;20291;-64
2023/07/06 01:23:15;;;;;;;3.25;1.63;;;;;;;14.13;88.21;98688.75;4069844;29;20228;-65
2023/07/06 01:25:38;;;;;;;2.15;1.90;;;;;;;14.07;88.29;98691.75;4068731;29;20201;-65
2023/07/06 01:28:11;;;;;;;2.72;1.90;;;;;;;13.98;89.53;98688.66;4070118;29;20255;-65
2023/07/06 01:30:45;;;;;;;2.88;1.83;;;;;;;13.99;89.43;98690.34;4070853;29;20280;-65
2023/07/06 01:32:52;;;;;;;4.90;1.98;;;;;;;14.00;89.35;98694.75;4074172;29;20205;-65
2023/07/06 01:35:01;;;;;;;2.00;1.40;;;;;;;13.98;89.59;98691.41;4069476;29;20235;-65
2023/07/06 01:37:06;;;;;;;2.42;1.77;;;;;;;13.92;89.72;98699.94;4084518;28;20215;-65
2023/07/06 01:39:18;;;;;;;2.55;1.90;;;;;;;13.89;89.56;98694.97;4070687;29;20319;-65
2023/07/06 01:41:26;;;;;;;1.58;1.45;;;;;;;13.92;89.93;98684.25;4078435;29;20332;-65
2023/07/06 01:43:27;;;;;;;1.63;1.52;;;;;;;13.88;90.07;98685.88;4077781;29;20235;-65
2023/07/06 01:45:29;;;;;;;2.38;1.65;;;;;;;13.81;90.12;98690.78;4073310;29;20611;-65
2023/07/06 01:47:33;;;;;;;5.32;2.15;;;;;;;13.86;90.18;98696.34;4058236;29;20209;-65
2023/07/06 01:49:35;;;;;;;2.55;2.35;;;;;;;13.81;90.67;98695.47;4071162;29;20598;-65
2023/07/06 01:51:47;;;;;;;2.95;1.67;;;;;;;13.79;90.72;98692.16;4073862;29;20924;-65
2023/07/06 01:54:01;;;;;;;2.38;1.83;;;;;;;13.78;90.74;98683.06;4071280;29;20204;-65
2023/07/06 01:56:14;;;;;;;2.75;2.03;;;;;;;13.77;90.79;98689.66;4070224;29;20916;-64
2023/07/06 01:58:35;;;;;;;2.38;2.08;;;;;;;13.74;91.12;98692.97;4069203;29;20255;-65
2023/07/06 02:00:40;;;;;;;2.50;2.20;;;;;;;13.71;91.30;98698.16;4085801;28;20233;-65
2023/07/06 02:02:44;;;;;;;1.98;1.80;;;;;;;13.63;91.39;98695.91;4074531;29;20232;-65
2023/07/06 02:04:46;;;;;;;2.83;2.63;;;;;;;13.64;91.27;98692.88;4072863;29;20212;-65
2023/07/06 02:06:53;;;;;;;2.53;2.33;;;;;;;13.66;91.37;98690.72;4069832;29;20264;-65
2023/07/06 02:08:55;;;;;;;2.67;2.45;;;;;;;13.62;91.20;98695.06;4073899;29;20217;-65
2023/07/06 02:10:56;;;;;;;6.25;2.40;;;;;;;13.54;91.20;98694.72;4072750;29;20315;-65
2023/07/06 02:12:58;;;;;;;2.70;1.95;;;;;;;13.50;91.31;98690.88;4070039;29;20200;-64
2023/07/06 02:14:59;;;;;;;2.42;2.10;;;;;;;13.43;91.36;98699.34;4073541;29;20749;-65
2023/07/06 02:17:01;;;;;;;2.35;2.15;;;;;;;13.47;91.74;98694.97;4075060;29;20219;-64
2023/07/06 02:19:03;;;;;;;2.38;2.17;;;;;;;13.44;91.65;98700.19;4070582;29;20656;-65
2023/07/06 02:21:05;;;;;;;2.08;1.95;;;;;;;13.49;91.85;98695.53;4072616;29;20228;-65
2023/07/06 02:23:08;;;;;;;2.38;1.88;;;;;;;13.42;91.89;98700.44;4072729;29;20995;-64
2023/07/06 02:25:10;;;;;;;2.47;1.98;;;;;;;13.35;91.99;98699.00;4072167;29;20235;-65
2023/07/06 02:27:12;;;;;;;2.28;2.00;;;;;;;13.33;92.01;98701.19;4073887;29;20271;-65
2023/07/06 02:29:14;;;;;;;2.70;2.05;;;;;;;13.32;92.61;98688.53;4070991;29;20244;-65
2023/07/06 02:31:16;;;;;;;3.67;2.33;;;;;;;13.31;92.90;98693.19;4071887;29;20256;-65
2023/07/06 02:33:18;;;;;;;2.83;2.25;;;;;;;13.17;92.86;98691.97;4072129;29;20586;-64
2023/07/06 02:35:20;;;;;;;2.30;1.88;;;;;;;13.18;93.13;98696.38;4073417;29;20328;-65
2023/07/06 02:37:23;;;;;;;1.65;1.50;;;;;;;13.10;93.25;98685.88;4071202;29;20295;-65
2023/07/06 02:39:25;;;;;;;2.30;1.98;;;;;;;13.11;93.55;98687.53;4057369;29;20291;-65
2023/07/06 02:41:26;;;;;;;2.17;1.88;;;;;;;13.06;93.31;98694.91;4072703;29;20232;-65
2023/07/06 02:43:29;;;;;;;2.00;1.80;;;;;;;13.01;93.69;98694.84;4072822;29;21219;-64
2023/07/06 02:45:30;;;;;;;2.55;1.85;;;;;;;13.01;93.62;98692.09;4071537;29;20307;-64
2023/07/06 02:47:32;;;;;;;2.40;2.00;;;;;;;13.02;93.61;98694.59;4072652;29;20208;-64
2023/07/06 02:49:34;;;;;;;5.70;2.30;;;;;;;13.02;93.37;98697.34;4071178;29;20220;-64
2023/07/06 02:51:35;;;;;;;3.03;1.80;;;;;;;13.06;93.29;98698.50;4070871;29;20275;-65
2023/07/06 02:53:37;;;;;;;2.63;1.92;;;;;;;12.99;93.14;98691.56;4074321;29;20291;-65
2023/07/06 02:55:38;;;;;;;4.55;1.95;;;;;;;12.98;93.35;98693.47;4071003;29;20219;-64
2023/07/06 02:57:40;;;;;;;2.78;1.80;;;;;;;12.93;92.99;98696.16;4070539;29;20244;-65
2023/07/06 02:59:41;;;;;;;1.70;1.60;;;;;;;12.94;92.96;98697.81;4070518;29;20588;-65
2023/07/06 03:01:45;;;;;;;2.40;2.20;;;;;;;12.82;92.91;98688.91;4072594;29;20231;-65
2023/07/06 03:03:46;;;;;;;3.92;1.67;;;;;;;12.82;93.39;98697.13;4072362;29;20611;-65
2023/07/06 03:05:48;;;;;;;4.03;1.95;;;;;;;12.75;93.06;98699.25;4071388;29;20236;-65
2023/07/06 03:07:54;;;;;;;3.53;1.85;;;;;;;12.79;93.43;98694.06;4072013;29;20308;-65
2023/07/06 03:09:57;;;;;;;1.85;1.70;;;;;;;12.82;93.23;98694.38;4072770;29;20237;-65
2023/07/06 03:11:59;;;;;;;2.65;2.45;;;;;;;12.72;93.99;98691.56;4057969;29;20287;-65
2023/07/06 03:14:02;;;;;;;4.53;2.08;;;;;;;12.72;94.13;98688.81;4057210;29;20246;-65
2023/07/06 03:16:05;;;;;;;2.30;1.95;;;;;;;12.64;94.22;98691.19;4086273;28;20226;-65
2023/07/06 03:18:07;;;;;;;2.50;2.10;;;;;;;12.66;94.11;98689.84;4071344;29;20227;-65
2023/07/06 03:20:15;;;;;;;2.60;1.60;;;;;;;12.61;94.17;98687.03;4063046;29;20201;-65
2023/07/06 03:22:18;;;;;;;2.22;2.03;;;;;;;12.65;94.27;98698.34;4069379;29;20640;-64
2023/07/06 03:24:19;;;;;;;2.08;1.98;;;;;;;12.58;94.76;98687.53;4070960;29;20240;-64
2023/07/06 03:26:21;;;;;;;2.08;1.50;;;;;;;12.55;94.41;98696.31;4069960;29;20240;-64
2023/07/06 03:28:23;;;;;;;2.25;1.92;;;;;;;12.51;94.67;98694.34;4073203;29;20248;-64
2023/07/06 03:30:29;;;;;;;2.28;2.08;;;;;;;12.52;94.64;98693.25;4071780;29;20241;-64
2023/07/06 03:32:36;;;;;;;2.45;1.80;;;;;;;12.53;94.33;98695.75;4072593;29;20732;-64
2023/07/06 03:34:38;;;;;;;2.33;2.13;;;;;;;12.51;94.37;98697.91;4072191;29;20263;-63
2023/07/06 03:36:40;;;;;;;2.28;2.05;;;;;;;12.48;94.22;98695.69;4073717;29;20660;-64
2023/07/06 03:38:42;;;;;;;3.25;1.70;;;;;;;12.53;94.33;98701.22;4069907;29;20728;-64
2023/07/06 03:40:50;;;;;;;2.20;2.00;;;;;;;12.46;94.15;98711.59;4068124;29;20323;-65
2023/07/06 03:42:55;;;;;;;2.88;2.10;;;;;;;12.45;94.78;98709.91;4068603;29;20303;-64
2023/07/06 03:44:57;;;;;;;2.65;2.45;;;;;;;12.45;95.18;98717.31;4071535;29;20213;-65
2023/07/06 03:47:01;;;;;;;5.32;2.10;;;;;;;12.43;95.04;98712.09;4068745;29;20606;-64
2023/07/06 03:49:04;;;;;;;2.78;2.22;;;;;;;12.37;95.24;98713.09;4068005;29;20204;-64
2023/07/06 03:51:07;;;;;;;2.85;2.00;;;;;;;12.36;95.45;98708.72;4067219;29;20331;-64
2023/07/06 03:53:10;;;;;;;2.45;1.88;;;;;;;12.32;95.42;98706.75;4067954;29;20208;-65
2023/07/06 03:55:13;;;;;;;3.08;1.50;;;;;;;12.31;95.71;98714.13;4060846;29;20220;-65
2023/07/06 03:57:16;;;;;;;1.67;1.55;;;;;;;12.25;95.68;98717.91;4069290;29;20247;-65
2023/07/06 03:59:18;;;;;;;3.47;2.47;;;;;;;12.22;95.75;98720.31;4069491;29;20212;-66
2023/07/06 04:01:20;;;;;;;2.53;2.33;;;;;;;12.23;95.94;98711.84;4068252;29;20274;-66
2023/07/06 04:03:21;;;;;;;4.60;1.95;;;;;;;12.22;95.98;98723.91;4070316;29;20367;-65
2023/07/06 04:05:31;;;;;;;2.85;2.10;;;;;;;12.25;96.12;98723.38;4071349;29;20268;-65
2023/07/06 04:07:32;;;;;;;2.42;2.22;;;;;;;12.20;96.43;98723.34;4070335;29;20211;-66
2023/07/06 04:09:36;;;;;;;2.15;1.95;;;;;;;12.19;96.33;98718.94;4069109;29;20941;-66
2023/07/06 04:11:37;;;;;;;3.22;2.13;;;;;;;12.17;96.27;98729.31;4070872;29;20296;-65
2023/07/06 04:13:40;;;;;;;2.53;2.33;;;;;;;12.19;96.61;98727.19;4055862;29;20391;-64
2023/07/06 04:15:45;;;;;;;3.40;2.30;;;;;;;12.19;96.60;98729.91;4072778;29;20251;-64
2023/07/06 04:17:47;;;;;;;3.45;2.17;;;;;;;12.20;96.38;98731.56;4069730;29;20815;-64
2023/07/06 04:19:53;;;;;;;2.25;2.08;;;;;;;12.17;96.80;98737.56;4068640;29;20312;-65
2023/07/06 04:21:56;;;;;;;2.97;2.03;;;;;;;12.14;96.52;98729.00;4070454;29;20208;-65
2023/07/06 04:23:59;;;;;;;2.17;2.00;;;;;;;12.14;96.77;98739.97;4068893;29;20246;-65
2023/07/06 04:26:00;;;;;;;2.90;2.20;;;;;;;12.14;96.89;98740.81;4069316;29;20204;-65
2023/07/06 04:28:07;;;;;;;2.00;1.80;;;;;;;12.17;96.97;98743.03;4069291;29;20244;-65
2023/07/06 04:30:11;;;;;;;2.47;2.28;;;;;;;12.15;97.00;98737.00;4068093;29;20239;-65
2023/07/06 04:32:14;;;;;;;2.28;2.08;;;;;;;12.20;97.30;98745.28;4069406;29;20208;-66
2023/07/06 04:34:15;;;;;;;2.70;2.25;;;;;;;12.14;97.38;98746.31;4070797;29;20228;-66
2023/07/06 04:36:17;;;;;;;3.33;2.10;;;;;;;12.08;97.46;98739.09;4067396;29;20909;-65
2023/07/06 04:38:20;;;;;;;4.35;2.65;;;;;;;12.13;97.67;98744.66;4070113;29;20384;-65
2023/07/06 04:40:26;;;;;;;2.63;2.42;;;;;;;12.20;97.61;98748.03;4070539;29;20235;-65
2023/07/06 04:42:28;;;;;;;1.83;1.73;;;;;;;12.22;97.21;98743.13;4067734;29;20204;-65
2023/07/06 04:44:30;;;;;;;2.50;2.30;;;;;;;12.28;97.28;98744.84;4059018;29;20316;-65
2023/07/06 04:46:31;;;;;;;3.50;2.65;;;;;;;12.34;97.13;98741.06;4069031;29;20698;-65
2023/07/06 04:48:33;;;;;;;3.75;2.28;;;;;;;12.39;97.12;98743.88;4071491;29;20211;-65
2023/07/06 04:50:37;;;;;;;2.22;2.03;;;;;;;12.42;96.88;98737.88;4070008;29;20279;-65
2023/07/06 04:52:39;;;;;;;3.92;2.35;;;;;;;12.39;97.25;98743.88;4067868;29;20208;-65
2023/07/06 04:54:40;;;;;;;3.70;2.30;;;;;;;12.43;97.17;98744.22;4067855;29;20211;-65
2023/07/06 04:56:42;;;;;;;3.78;3.35;;;;;;;12.45;96.58;98748.31;4069116;29;20207;-65
2023/07/06 04:58:45;;;;;;;2.50;2.30;;;;;;;12.49;96.80;98746.75;4081963;28;21043;-65
2023/07/06 05:00:48;;;;;;;2.33;2.13;;;;;;;12.62;97.16;98749.09;4069098;29;20227;-65
2023/07/06 05:03:06;;;;;;;3.05;2.65;;;;;;;12.59;97.11;98752.38;4070237;29;20205;-65
2023/07/06 05:05:12;;;;;;;2.58;2.38;;;;;;;12.54;97.46;98744.06;4067063;29;20231;-65
2023/07/06 05:07:14;;;;;;;3.00;2.75;;;;;;;12.51;97.99;98744.56;4066485;29;20260;-65
2023/07/06 05:09:16;;;;;;;5.07;2.45;;;;;;;12.59;97.28;98746.88;4066059;29;20299;-65
2023/07/06 05:11:17;;;;;;;3.17;2.38;;;;;;;12.69;96.49;98744.22;4068803;29;20236;-65
2023/07/06 05:13:20;;;;;;;2.63;2.42;;;;;;;12.63;97.80;98745.25;4069874;29;20298;-65
2023/07/06 05:15:23;;;;;;;3.40;2.83;;;;;;;12.72;97.34;98754.72;4066868;29;20240;-65
2023/07/06 05:17:24;;;;;;;4.30;3.15;;;;;;;12.68;97.57;98753.56;4050459;29;20208;-64
2023/07/06 05:19:27;;;;;;;9.02;3.00;;;;;;;12.76;99.01;98757.78;4071644;29;20213;-65
2023/07/06 05:21:28;;;;;;;3.40;2.35;;;;;;;12.62;99.55;98757.31;4067807;29;20679;-65
2023/07/06 05:23:30;;;;;;;3.67;3.30;;;;;;;12.79;98.52;98757.25;4071717;29;20217;-65
2023/07/06 05:25:32;;;;;;;3.08;2.83;;;;;;;12.92;97.65;98760.41;4073562;29;20217;-65
2023/07/06 05:27:34;;;;;;;7.40;3.15;;;;;;;13.04;97.68;98757.53;4070138;29;20299;-64
2023/07/06 05:29:36;;;;;;;2.88;2.55;;;;;;;13.05;98.21;98760.00;4083455;28;20719;-65
2023/07/06 05:31:37;;;;;;;4.03;2.63;;;;;;;13.18;97.81;98765.09;4071955;29;20791;-65
2023/07/06 05:33:39;;;;;;;2.88;2.28;;;;;;;13.33;97.23;98762.50;4069230;29;20318;-64
2023/07/06 05:35:41;;;;;;;3.83;2.70;;;;;;;13.38;96.56;98759.75;4071224;29;20221;-65
2023/07/06 05:37:43;;;;;;;6.07;2.47;;;;;;;13.43;96.85;98756.25;4072850;29;20214;-65
2023/07/06 05:39:44;;;;;;;6.43;2.90;;;;;;;13.51;95.88;98762.06;4072622;29;20287;-64
2023/07/06 05:41:47;;;;;;;3.00;2.45;;;;;;;13.64;96.74;98753.38;4072493;29;20914;-64
2023/07/06 05:43:49;;;;;;;3.55;2.75;;;;;;;13.61;96.93;98764.91;4071132;29;20228;-64
2023/07/06 05:45:51;;;;;;;6.68;3.42;;;;;;;13.76;97.87;98767.78;4074785;29;20235;-65
2023/07/06 05:47:52;;;;;;;15.45;2.72;;;;;;;14.07;96.88;98763.28;4073433;29;20231;-64
2023/07/06 05:49:54;;;;;;;3.17;2.78;;;;;;;14.06;96.92;98767.16;4070020;29;20748;-65
2023/07/06 05:51:56;;;;;;;3.05;2.75;;;;;;;14.34;96.92;98764.03;4070737;29;20214;-64
2023/07/06 05:53:58;;;;;;;5.28;2.90;;;;;;;14.42;95.01;98767.09;4071210;29;20818;-65
2023/07/06 05:56:00;;;;;;;3.47;2.63;;;;;;;14.72;94.31;98767.25;4070935;29;20311;-65
2023/07/06 05:58:02;;;;;;;3.10;2.80;;;;;;;15.06;92.51;98764.84;4074894;29;21165;-64
2023/07/06 06:00:09;;;;;;;5.60;2.70;;;;;;;15.28;92.43;98769.00;4058656;29;20592;-64
2023/07/06 06:02:16;;;;;;;4.63;2.80;;;;;;;15.31;89.69;98771.19;4068719;29;20232;-64
2023/07/06 06:04:18;;;;;;;5.18;2.65;;;;;;;15.41;90.92;98771.25;4066230;29;20228;-65
2023/07/06 06:06:21;;;;;;;6.47;2.95;;;;;;;15.40;88.48;98768.75;4074610;29;20222;-65
2023/07/06 06:08:23;;;;;;;3.22;2.75;;;;;;;15.62;89.08;98772.91;4070119;29;20212;-64
2023/07/06 06:10:25;;;;;;;5.32;3.25;;;;;;;15.81;87.80;98775.94;4072613;29;20332;-65
2023/07/06 06:12:27;;;;;;;3.92;2.33;;;;;;;15.79;87.93;98778.16;4071400;29;20307;-65
2023/07/06 06:14:29;;;;;;;6.32;2.67;;;;;;;15.90;87.99;98780.63;4073368;29;22417;-65
2023/07/06 06:16:34;;;;;;;5.20;2.80;;;;;;;16.27;85.96;98772.81;4073717;29;20243;-65
2023/07/06 06:18:39;;;;;;;3.78;2.85;;;;;;;16.50;84.78;98768.66;4072454;29;20205;-65
2023/07/06 06:20:44;;;;;;;17.85;3.17;;;;;;;16.71;84.73;98776.59;4072217;29;20233;-65
2023/07/06 06:22:45;;;;;;;6.13;2.58;;;;;;;16.95;83.39;98777.56;4071730;29;20216;-65
2023/07/06 06:24:48;;;;;;;9.85;3.15;;;;;;;16.84;83.58;98775.94;4065755;29;20427;-65
2023/07/06 06:26:49;;;;;;;4.68;2.85;;;;;;;17.29;83.14;98779.28;4068163;29;20843;-65
2023/07/06 06:28:51;;;;;;;5.53;2.35;;;;;;;17.30;82.31;98785.63;4070678;29;20216;-65
2023/07/06 06:30:55;;;;;;;8.45;2.53;;;;;;;17.35;81.94;98782.84;4070512;29;20262;-65
2023/07/06 06:32:57;;;;;;;4.20;2.70;;;;;;;17.50;81.11;98791.06;4064004;29;20224;-65
2023/07/06 06:34:59;;;;;;;3.65;2.83;;;;;;;17.69;81.36;98789.25;4070353;29;20217;-65
2023/07/06 06:37:04;;;;;;;5.80;2.50;;;;;;;17.81;78.64;98786.94;4070580;29;20212;-65
2023/07/06 06:39:06;;;;;;;4.32;2.20;;;;;;;17.77;79.77;98797.78;4070727;29;20688;-65
2023/07/06 06:41:10;;;;;;;2.67;1.92;;;;;;;17.95;78.89;98796.22;4071140;29;20232;-65
2023/07/06 06:43:11;;;;;;;2.63;1.60;;;;;;;18.20;78.73;98801.53;4069004;29;21252;-65
2023/07/06 06:45:13;;;;;;;3.97;2.33;;;;;;;18.32;78.04;98796.47;4071672;29;20311;-65
2023/07/06 06:47:15;;;;;;;5.60;2.55;;;;;;;18.48;77.91;98798.78;4053278;29;20332;-65
2023/07/06 06:49:16;;;;;;;2.75;2.20;;;;;;;18.59;77.58;98800.31;4071227;29;20329;-66
2023/07/06 06:51:18;;;;;;;5.05;2.25;;;;;;;18.76;75.28;98803.44;4070605;29;20263;-65
2023/07/06 06:53:20;;;;;;;4.63;1.98;;;;;;;18.98;74.91;98802.91;4071778;29;20250;-65
2023/07/06 06:55:21;;;;;;;10.32;2.28;;;;;;;19.08;74.02;98808.28;4070351;29;20755;-65
2023/07/06 06:57:23;;;;;;;5.25;2.33;;;;;;;18.65;74.16;98798.31;4071023;29;20216;-65
2023/07/06 06:59:25;;;;;;;3.42;1.95;;;;;;;18.73;74.91;98794.88;4069253;29;20230;-65
2023/07/06 07:01:27;;;;;;;5.95;1.88;;;;;;;19.04;73.22;98790.63;4067699;29;20227;-65
2023/07/06 07:03:30;;;;;;;5.25;2.08;;;;;;;19.28;72.63;98794.19;4068799;29;20208;-64
2023/07/06 07:05:31;;;;;;;3.50;1.73;;;;;;;19.46;72.45;98793.34;4071827;29;20230;-64
2023/07/06 07:07:39;;;;;;;3.75;2.90;;;;;;;18.97;71.29;98801.25;4070988;29;20211;-64
2023/07/06 07:09:41;;;;;;;3.28;1.92;;;;;;;19.40;71.56;98791.78;4069500;29;20594;-65
2023/07/06 07:11:43;;;;;;;3.72;2.22;;;;;;;19.46;70.19;98782.25;4070336;29;20678;-65
2023/07/06 07:13:45;;;;;;;2.53;1.48;;;;;;;19.80;69.64;98794.75;4073726;29;20897;-65
2023/07/06 07:15:47;;;;;;;3.30;2.40;;;;;;;19.48;68.39;98796.66;4070479;29;20205;-64
2023/07/06 07:17:51;;;;;;;4.30;1.95;;;;;;;19.66;68.24;98788.28;4070828;29;20211;-64
2023/07/06 07:19:53;;;;;;;3.78;1.92;;;;;;;20.07;67.96;98788.50;4069914;29;20220;-64
2023/07/06 07:21:55;;;;;;;4.03;2.08;;;;;;;20.33;67.38;98798.03;4067480;29;20383;-64
2023/07/06 07:23:57;;;;;;;2.42;1.70;;;;;;;20.45;65.99;98795.56;4068338;29;20303;-64
2023/07/06 07:25:58;;;;;;;3.53;1.27;;;;;;;20.74;65.26;98796.94;4075709;29;20302;-65
2023/07/06 07:28:00;;;;;;;9.73;2.30;;;;;;;20.81;63.41;98788.16;4070524;29;20211;-64
2023/07/06 07:30:04;;;;;;;5.88;1.50;;;;;;;20.94;62.84;98798.50;4071553;29;20204;-65
2023/07/06 07:32:06;;;;;;;5.47;1.35;;;;;;;21.04;62.33;98801.09;4073192;29;20315;-65
2023/07/06 07:34:08;;;;;;;3.30;1.13;;;;;;;21.25;60.74;98794.75;4069680;29;20294;-64
2023/07/06 07:36:11;;;;;;;3.83;1.08;;;;;;;21.31;59.33;98795.47;4078735;29;20242;-64
2023/07/06 07:38:12;;;;;;;3.90;1.05;;;;;;;21.26;60.17;98790.84;4070672;29;20726;-64
2023/07/06 07:40:17;;;;;;;2.97;1.50;;;;;;;21.52;59.03;98793.88;4069886;29;20224;-64
2023/07/06 07:42:19;;;;;;;3.90;1.77;;;;;;;21.45;59.92;98796.25;4071938;29;20582;-65
2023/07/06 07:44:21;;;;;;;2.30;1.35;;;;;;;21.60;60.77;98793.13;4068423;29;20212;-64
2023/07/06 07:46:24;;;;;;;3.90;1.60;;;;;;;21.89;59.71;98799.13;4077500;29;20211;-65
2023/07/06 07:48:26;;;;;;;2.85;1.42;;;;;;;21.25;59.23;98793.94;4067741;29;20243;-64
2023/07/06 07:50:28;;;;;;;11.35;1.65;;;;;;;21.69;59.19;98799.59;4069945;29;20258;-64
2023/07/06 07:52:29;;;;;;;2.80;1.40;;;;;;;21.91;58.66;98796.84;4070770;29;20756;-65
2023/07/06 07:54:31;;;;;;;2.20;1.60;;;;;;;22.01;56.62;98802.16;4068585;29;20723;-64
2023/07/06 07:56:33;;;;;;;2.38;1.27;;;;;;;22.01;56.70;98793.78;4083566;28;20212;-64
2023/07/06 07:58:36;;;;;;;5.88;1.50;;;;;;;22.07;57.37;98800.91;4071960;29;20220;-64
2023/07/06 08:00:39;;;;;;;1.80;1.30;;;;;;;22.27;57.14;98792.00;4067324;29;20230;-65
2023/07/06 08:02:40;;;;;;;2.92;1.55;;;;;;;22.09;56.23;98790.25;4071349;29;20216;-64
2023/07/06 08:04:42;;;;;;;2.30;1.70;;;;;;;22.36;55.06;98799.28;4070924;29;20228;-64
2023/07/06 08:06:46;;;;;;;11.20;2.10;;;;;;;22.60;54.56;98793.38;4070791;29;20226;-64
2023/07/06 08:08:48;;;;;;;5.65;1.20;;;;;;;22.46;51.97;98792.66;4072093;29;20286;-64
2023/07/06 08:10:51;;;;;;;1.85;0.93;;;;;;;22.45;50.00;98794.59;4068108;29;20723;-64
2023/07/06 08:12:54;;;;;;;1.70;1.17;;;;;;;22.56;52.30;98800.75;4071937;29;20659;-65
2023/07/06 08:14:56;;;;;;;2.10;1.23;;;;;;;22.98;51.35;98794.50;4067986;29;20239;-65
2023/07/06 08:16:58;;;;;;;2.50;1.45;;;;;;;22.05;50.80;98792.03;4070851;29;20719;-65
2023/07/06 08:19:03;;;;;;;2.65;1.05;;;;;;;22.22;52.39;98792.97;4070336;29;20298;-64
2023/07/06 08:21:25;;;;;;;2.33;0.85;;;;;;;22.76;51.63;98791.81;4069161;29;20230;-64
2023/07/06 08:23:49;;;;;;;1.80;1.50;;;;;;;22.33;51.44;98793.53;4072915;29;20207;-64
2023/07/06 08:25:51;;;;;;;4.40;1.58;;;;;;;22.77;51.95;98793.44;4069881;29;20307;-64
2023/07/06 08:27:52;;;;;;;1.95;1.20;;;;;;;23.09;51.55;98795.84;4069733;29;20204;-66
2023/07/06 08:29:54;;;;;;;3.92;1.13;;;;;;;23.07;48.56;98793.41;4069342;29;20223;-64
2023/07/06 08:31:56;;;;;;;2.00;1.35;;;;;;;22.96;47.43;98796.81;4071961;29;20378;-64
2023/07/06 08:34:00;;;;;;;2.55;1.08;;;;;;;23.05;47.91;98795.66;4071001;29;20208;-64
2023/07/06 08:36:07;;;;;;;2.78;1.08;;;;;;;23.23;47.56;98802.19;4069235;29;20251;-64
2023/07/06 08:38:09;;;;;;;6.55;1.30;;;;;;;22.94;46.80;98793.50;4061675;29;20220;-64
2023/07/06 08:40:17;;;;;;;2.50;1.00;;;;;;;23.56;47.25;98789.41;4068564;29;20327;-64
2023/07/06 08:42:21;;;;;;;3.90;1.30;;;;;;;23.67;47.54;98790.72;4076248;29;20203;-65
2023/07/06 08:44:23;;;;;;;3.95;1.15;;;;;;;23.55;46.24;98798.91;4069428;29;20267;-65
2023/07/06 08:46:28;;;;;;;1.80;1.20;;;;;;;23.77;47.66;98796.00;4068981;29;20711;-65
2023/07/06 08:48:33;;;;;;;3.50;1.45;;;;;;;24.06;47.33;98794.19;4069520;29;20207;-65
2023/07/06 08:50:36;;;;;;;3.80;1.45;;;;;;;24.30;46.72;98794.47;4071696;29;20270;-64
2023/07/06 08:52:38;;;;;;;8.43;1.73;;;;;;;24.07;46.79;98796.66;4075525;29;20236;-65
2023/07/06 08:54:40;;;;;;;2.00;1.08;;;;;;;23.40;47.79;98796.59;4071805;29;20211;-64
2023/07/06 08:56:41;;;;;;;2.33;1.00;;;;;;;23.41;47.89;98798.25;4070709;29;20586;-64
2023/07/06 08:58:43;;;;;;;3.03;1.15;;;;;;;23.17;47.91;98803.47;4073971;29;20682;-65
2023/07/06 09:00:44;;;;;;;1.70;1.10;;;;;;;23.30;48.42;98797.75;4068011;29;21255;-64
2023/07/06 09:02:48;;;;;;;3.67;1.27;;;;;;;23.87;46.26;98792.88;4070876;29;20294;-64
2023/07/06 09:04:51;;;;;;;4.30;1.70;;;;;;;23.98;46.95;98785.81;4073237;29;20241;-64
2023/07/06 09:06:55;;;;;;;2.55;1.40;;;;;;;23.41;47.13;98784.28;4053664;29;20247;-65
2023/07/06 09:09:03;;;;;;;1.77;1.13;;;;;;;23.00;47.81;98795.00;4072442;29;20763;-64
2023/07/06 09:11:05;;;;;;;1.90;1.40;;;;;;;23.22;47.10;98790.16;4071495;29;20223;-64
2023/07/06 09:13:25;;;;;;;3.88;1.63;;;;;;;23.88;46.56;98788.94;4071692;29;20262;-65
2023/07/06 09:15:28;;;;;;;2.30;1.15;;;;;;;24.05;47.21;98787.78;4074967;29;21104;-64
2023/07/06 09:17:30;;;;;;;1.55;1.20;;;;;;;24.88;45.89;98789.03;4076929;29;20325;-65
2023/07/06 09:19:32;;;;;;;1.33;1.08;;;;;;;25.24;44.77;98793.00;4076637;29;20218;-65
2023/07/06 09:21:33;;;;;;;2.33;1.17;;;;;;;25.10;44.65;98798.00;4071847;29;20231;-66
2023/07/06 09:23:35;;;;;;;2.92;1.20;;;;;;;24.57;43.58;98782.91;4071146;29;20267;-65
2023/07/06 09:25:42;;;;;;;2.42;1.50;;;;;;;24.22;43.85;98787.75;4068041;29;20259;-64
2023/07/06 09:27:46;;;;;;;5.60;1.50;;;;;;;23.73;45.51;98784.66;4074498;29;20212;-65
2023/07/06 09:30:05;;;;;;;3.45;1.08;;;;;;;23.58;45.70;98792.69;4066261;29;20343;-64
2023/07/06 09:32:11;;;;;;;2.78;1.20;;;;;;;23.14;46.19;98788.16;4070297;29;20254;-64
2023/07/06 09:34:28;;;;;;;4.43;1.80;;;;;;;23.63;47.49;98784.16;4069148;29;20204;-65
2023/07/06 09:36:30;;;;;;;1.73;1.08;;;;;;;23.76;46.13;98788.75;4073496;29;20211;-65
2023/07/06 09:38:42;;;;;;;5.05;1.30;;;;;;;24.14;46.01;98774.59;4067280;29;20314;-65
2023/07/06 09:40:44;;;;;;;1.83;1.08;;;;;;;24.13;46.55;98795.31;4068152;29;20310;-64
2023/07/06 09:42:49;;;;;;;4.20;1.05;;;;;;;23.90;47.07;98778.25;4069318;29;20299;-65
2023/07/06 09:44:51;;;;;;;3.58;1.23;;;;;;;23.33;48.35;98793.47;4068604;29;20267;-64